createdAt,value
2023-04-21T00:00:48.409Z,8.24
2023-04-21T00:01:48.455Z,8.28
2023-04-21T00:02:48.675Z,8.29
2023-04-21T00:03:48.586Z,8.28
2023-04-21T00:04:48.707Z,8.28
2023-04-21T00:05:48.724Z,8.25
2023-04-21T00:06:48.560Z,8.26
2023-04-21T00:07:48.580Z,8.25
2023-04-21T00:08:48.601Z,8.32
2023-04-21T00:09:48.629Z,8.31
2023-04-21T00:10:48.654Z,8.32
2023-04-21T00:11:48.688Z,8.25
2023-04-21T00:12:48.703Z,8.26
2023-04-21T00:13:48.725Z,8.25
2023-04-21T00:14:48.758Z,8.34
2023-04-21T00:15:48.823Z,8.25
2023-04-21T00:16:48.806Z,8.32
2023-04-21T00:17:48.874Z,8.29
2023-04-21T00:18:48.848Z,8.26
2023-04-21T00:19:48.874Z,8.28
2023-04-21T00:20:48.898Z,8.19
2023-04-21T00:21:48.922Z,8.28
2023-04-21T00:22:48.947Z,8.35
2023-04-21T00:23:48.973Z,8.29
2023-04-21T00:24:49.000Z,8.25
2023-04-21T00:25:49.042Z,8.29
2023-04-21T00:26:49.044Z,8.25
2023-04-21T00:27:49.072Z,8.22
2023-04-21T00:28:49.096Z,8.31
2023-04-21T00:29:49.125Z,8.21
2023-04-21T00:30:49.151Z,8.26
2023-04-21T00:31:49.254Z,8.26
2023-04-21T00:32:49.215Z,8.22
2023-04-21T00:33:49.249Z,8.19
2023-04-21T00:34:49.245Z,8.19
2023-04-21T00:35:49.273Z,8.22
2023-04-21T00:36:49.293Z,8.16
2023-04-21T00:37:49.321Z,8.14
2023-04-21T00:38:49.342Z,8.19
2023-04-21T00:39:49.370Z,8.26
2023-04-21T00:40:49.403Z,8.13
2023-04-21T00:41:49.417Z,8.16
2023-04-21T00:42:49.445Z,8.19
2023-04-21T00:43:49.468Z,8.21
2023-04-21T00:44:49.492Z,8.19
2023-04-21T00:45:49.821Z,8.19
2023-04-21T00:46:49.602Z,8.17
2023-04-21T00:47:49.587Z,8.14
2023-04-21T00:48:49.599Z,8.14
2023-04-21T00:49:50.648Z,8.17
2023-04-21T00:50:49.642Z,8.22
2023-04-21T00:51:49.666Z,8.22
2023-04-21T00:52:49.689Z,8.17
2023-04-21T00:53:50.122Z,8.24
2023-04-21T00:54:49.747Z,8.26
2023-04-21T00:55:49.769Z,8.24
2023-04-21T00:56:49.787Z,8.28
2023-04-21T00:57:49.812Z,8.24
2023-04-21T00:58:49.843Z,8.24
2023-04-21T00:59:50.063Z,8.32
2023-04-21T01:00:49.951Z,8.31
2023-04-21T01:01:49.952Z,8.28
2023-04-21T01:02:50.178Z,8.39
2023-04-21T01:03:50.203Z,8.28
2023-04-21T01:04:50.396Z,8.28
2023-04-21T01:05:50.034Z,8.29
2023-04-21T01:06:50.040Z,8.26
2023-04-21T01:07:50.062Z,8.26
2023-04-21T01:08:50.084Z,8.28
2023-04-21T01:09:50.115Z,8.26
2023-04-21T01:10:50.134Z,8.35
2023-04-21T01:11:50.165Z,8.34
2023-04-21T01:12:50.188Z,8.34
2023-04-21T01:13:50.216Z,8.32
2023-04-21T01:14:50.237Z,8.35
2023-04-21T01:15:50.264Z,8.34
2023-04-21T01:16:50.303Z,8.34
2023-04-21T01:17:50.339Z,8.35
2023-04-21T01:18:50.338Z,8.34
2023-04-21T01:19:50.364Z,8.34
2023-04-21T01:20:50.385Z,8.32
2023-04-21T01:21:50.439Z,8.35
2023-04-21T01:22:50.437Z,8.42
2023-04-21T01:23:50.463Z,8.35
2023-04-21T01:24:50.488Z,8.39
2023-04-21T01:25:50.515Z,8.40
2023-04-21T01:26:50.544Z,8.34
2023-04-21T01:27:50.575Z,8.34
2023-04-21T01:28:50.619Z,8.39
2023-04-21T01:29:50.626Z,8.39
2023-04-21T01:30:50.660Z,8.34
2023-04-21T01:31:50.714Z,8.28
2023-04-21T01:32:50.750Z,8.29
2023-04-21T01:33:50.722Z,8.26
2023-04-21T01:34:50.750Z,8.26
2023-04-21T01:35:50.770Z,8.29
2023-04-21T01:36:50.792Z,8.35
2023-04-21T01:37:50.835Z,8.26
2023-04-21T01:38:50.840Z,8.35
2023-04-21T01:39:50.871Z,8.34
2023-04-21T01:40:50.896Z,8.31
2023-04-21T01:41:50.916Z,8.26
2023-04-21T01:42:50.944Z,8.42
2023-04-21T01:43:50.967Z,8.40
2023-04-21T01:44:51.041Z,8.40
2023-04-21T01:45:51.034Z,8.34
2023-04-21T01:46:51.059Z,8.36
2023-04-21T01:47:51.095Z,8.36
2023-04-21T01:48:51.098Z,8.39
2023-04-21T01:49:51.124Z,8.35
2023-04-21T01:50:51.145Z,8.31
2023-04-21T01:51:51.168Z,8.34
2023-04-21T01:52:51.197Z,8.35
2023-04-21T01:53:51.238Z,8.35
2023-04-21T01:54:51.246Z,8.22
2023-04-21T01:55:51.283Z,8.26
2023-04-21T01:56:51.445Z,8.29
2023-04-21T01:57:51.328Z,8.32
2023-04-21T01:58:51.350Z,8.29
2023-04-21T01:59:51.385Z,8.24
2023-04-21T02:00:51.399Z,8.21
2023-04-21T02:01:51.483Z,8.21
2023-04-21T02:02:51.538Z,8.24
2023-04-21T02:03:51.697Z,8.21
2023-04-21T02:04:51.502Z,8.31
2023-04-21T02:05:51.525Z,8.32
2023-04-21T02:06:51.546Z,8.34
2023-04-21T02:07:51.584Z,8.34
2023-04-21T02:08:51.604Z,8.29
2023-04-21T02:09:51.652Z,8.35
2023-04-21T02:10:51.651Z,8.35
2023-04-21T02:11:51.674Z,8.29
2023-04-21T02:12:51.700Z,8.32
2023-04-21T02:13:51.722Z,8.32
2023-04-21T02:14:51.747Z,8.28
2023-04-21T02:15:59.644Z,8.28
2023-04-21T02:16:51.840Z,8.26
2023-04-21T02:17:51.869Z,8.29
2023-04-21T02:18:51.849Z,8.25
2023-04-21T02:19:51.872Z,8.26
2023-04-21T02:20:51.897Z,8.14
2023-04-21T02:21:51.918Z,8.11
2023-04-21T02:22:51.956Z,8.17
2023-04-21T02:23:52.022Z,8.17
2023-04-21T02:24:52.010Z,8.21
2023-04-21T02:25:52.041Z,8.13
2023-04-21T02:26:52.053Z,8.14
2023-04-21T02:27:52.073Z,8.09
2023-04-21T02:28:52.107Z,8.14
2023-04-21T02:29:52.122Z,8.16
2023-04-21T02:30:52.198Z,8.14
2023-04-21T02:31:59.356Z,8.13
2023-04-21T02:32:52.293Z,8.16
2023-04-21T02:33:52.229Z,8.01
2023-04-21T02:34:52.252Z,8.10
2023-04-21T02:35:52.273Z,7.98
2023-04-21T02:36:52.310Z,8.03
2023-04-21T02:37:52.324Z,8.01
2023-04-21T02:38:52.351Z,7.98
2023-04-21T02:39:52.388Z,7.96
2023-04-21T02:40:52.416Z,8.01
2023-04-21T02:41:52.447Z,7.98
2023-04-21T02:42:52.455Z,8.03
2023-04-21T02:43:52.483Z,7.96
2023-04-21T02:44:52.497Z,7.99
2023-04-21T02:45:52.522Z,7.98
2023-04-21T02:46:52.756Z,7.92
2023-04-21T02:47:52.611Z,7.98
2023-04-21T02:48:52.599Z,7.98
2023-04-21T02:49:52.621Z,7.99
2023-04-21T02:50:52.648Z,7.96
2023-04-21T02:51:52.681Z,7.98
2023-04-21T02:52:52.702Z,7.93
2023-04-21T02:53:52.727Z,7.91
2023-04-21T02:54:52.756Z,7.85
2023-04-21T02:55:52.776Z,7.85
2023-04-21T02:56:52.999Z,7.82
2023-04-21T02:57:53.042Z,7.98
2023-04-21T02:58:53.066Z,7.82
2023-04-21T02:59:53.028Z,7.98
2023-04-21T03:00:52.920Z,7.85
2023-04-21T03:01:52.925Z,7.88
2023-04-21T03:02:53.368Z,7.92
2023-04-21T03:03:53.109Z,7.77
2023-04-21T03:04:53.000Z,7.78
2023-04-21T03:05:53.022Z,7.88
2023-04-21T03:06:53.051Z,7.75
2023-04-21T03:07:53.075Z,7.80
2023-04-21T03:08:53.097Z,7.75
2023-04-21T03:09:53.119Z,7.82
2023-04-21T03:10:53.150Z,7.82
2023-04-21T03:11:53.174Z,7.64
2023-04-21T03:12:53.212Z,7.80
2023-04-21T03:13:53.243Z,7.68
2023-04-21T03:14:53.249Z,7.74
2023-04-21T03:15:53.272Z,7.64
2023-04-21T03:16:53.389Z,7.68
2023-04-21T03:17:53.407Z,7.63
2023-04-21T03:18:53.354Z,7.55
2023-04-21T03:19:53.375Z,7.54
2023-04-21T03:20:53.398Z,7.55
2023-04-21T03:21:53.436Z,7.56
2023-04-21T03:22:53.451Z,7.55
2023-04-21T03:23:53.477Z,7.52
2023-04-21T03:24:53.497Z,7.49
2023-04-21T03:25:53.522Z,7.49
2023-04-21T03:26:53.556Z,7.39
2023-04-21T03:27:53.573Z,7.45
2023-04-21T03:28:53.598Z,7.41
2023-04-21T03:29:53.646Z,7.49
2023-04-21T03:30:53.648Z,7.44
2023-04-21T03:31:53.695Z,7.39
2023-04-21T03:32:53.732Z,7.45
2023-04-21T03:33:53.727Z,7.36
2023-04-21T03:34:53.747Z,7.41
2023-04-21T03:35:53.790Z,7.36
2023-04-21T03:36:53.797Z,7.31
2023-04-21T03:37:53.835Z,7.29
2023-04-21T03:38:53.853Z,7.27
2023-04-21T03:39:53.869Z,7.26
2023-04-21T03:40:53.900Z,7.22
2023-04-21T03:41:53.923Z,7.19
2023-04-21T03:42:53.949Z,7.15
2023-04-21T03:43:53.972Z,7.15
2023-04-21T03:44:53.995Z,7.19
2023-04-21T03:45:54.082Z,7.16
2023-04-21T03:46:54.048Z,7.21
2023-04-21T03:47:54.087Z,7.13
2023-04-21T03:48:54.097Z,7.15
2023-04-21T03:49:54.123Z,7.05
2023-04-21T03:50:54.146Z,7.03
2023-04-21T03:51:54.173Z,7.04
2023-04-21T03:52:54.192Z,6.98
2023-04-21T03:53:54.222Z,7.04
2023-04-21T03:54:54.248Z,7.04
2023-04-21T03:55:54.274Z,7.01
2023-04-21T03:56:54.297Z,7.04
2023-04-21T03:57:54.320Z,7.00
2023-04-21T03:58:54.346Z,6.95
2023-04-21T03:59:54.367Z,7.04
2023-04-21T04:00:54.394Z,7.04
2023-04-21T04:01:54.433Z,6.98
2023-04-21T04:02:54.525Z,7.01
2023-04-21T04:03:54.635Z,7.12
2023-04-21T04:04:54.526Z,7.03
2023-04-21T04:05:54.520Z,7.05
2023-04-21T04:06:54.544Z,6.97
2023-04-21T04:07:54.563Z,6.90
2023-04-21T04:08:54.589Z,6.93
2023-04-21T04:09:54.614Z,6.94
2023-04-21T04:10:54.639Z,6.93
2023-04-21T04:11:54.681Z,7.01
2023-04-21T04:12:54.694Z,6.88
2023-04-21T04:13:54.713Z,7.08
2023-04-21T04:14:54.740Z,7.12
2023-04-21T04:15:54.805Z,7.03
2023-04-21T04:16:54.786Z,7.00
2023-04-21T04:17:54.861Z,7.00
2023-04-21T04:18:54.841Z,7.08
2023-04-21T04:19:54.860Z,6.97
2023-04-21T04:20:54.883Z,7.08
2023-04-21T04:21:54.909Z,7.03
2023-04-21T04:22:54.934Z,6.94
2023-04-21T04:23:54.959Z,6.97
2023-04-21T04:24:54.986Z,7.00
2023-04-21T04:25:55.009Z,6.97
2023-04-21T04:26:55.033Z,6.90
2023-04-21T04:27:55.056Z,6.90
2023-04-21T04:28:55.081Z,6.95
2023-04-21T04:29:55.105Z,7.00
2023-04-21T04:30:55.158Z,6.91
2023-04-21T04:31:55.258Z,6.91
2023-04-21T04:32:55.252Z,6.80
2023-04-21T04:33:55.753Z,6.83
2023-04-21T04:34:55.228Z,6.83
2023-04-21T04:35:55.248Z,6.82
2023-04-21T04:36:55.278Z,6.73
2023-04-21T04:37:55.300Z,6.70
2023-04-21T04:38:55.326Z,6.73
2023-04-21T04:39:55.373Z,6.68
2023-04-21T04:40:55.379Z,6.73
2023-04-21T04:41:55.424Z,6.72
2023-04-21T04:42:55.431Z,6.73
2023-04-21T04:43:55.454Z,6.83
2023-04-21T04:44:55.474Z,6.86
2023-04-21T04:45:55.496Z,6.85
2023-04-21T04:46:55.585Z,6.80
2023-04-21T04:47:55.601Z,6.83
2023-04-21T04:48:55.568Z,6.85
2023-04-21T04:49:55.613Z,6.73
2023-04-21T04:50:55.627Z,6.91
2023-04-21T04:51:55.641Z,6.91
2023-04-21T04:52:55.670Z,6.88
2023-04-21T04:53:55.694Z,6.82
2023-04-21T04:54:55.719Z,6.82
2023-04-21T04:55:55.740Z,6.82
2023-04-21T04:56:55.766Z,6.83
2023-04-21T04:57:55.790Z,6.86
2023-04-21T04:58:55.816Z,6.86
2023-04-21T04:59:55.839Z,6.98
2023-04-21T05:00:55.862Z,7.01
2023-04-21T05:01:55.934Z,6.95
2023-04-21T05:02:56.055Z,7.01
2023-04-21T05:03:56.106Z,6.94
2023-04-21T05:04:56.104Z,7.04
2023-04-21T05:05:56.005Z,6.95
2023-04-21T05:06:56.024Z,6.94
2023-04-21T05:07:56.038Z,7.03
2023-04-21T05:08:56.084Z,6.94
2023-04-21T05:09:56.087Z,7.03
2023-04-21T05:10:56.120Z,7.04
2023-04-21T05:11:56.138Z,7.11
2023-04-21T05:12:56.160Z,7.04
2023-04-21T05:13:56.189Z,7.22
2023-04-21T05:14:56.212Z,7.16
2023-04-21T05:15:56.235Z,7.09
2023-04-21T05:16:56.287Z,7.23
2023-04-21T05:17:56.323Z,7.22
2023-04-21T05:18:56.368Z,7.12
2023-04-21T05:19:56.361Z,7.23
2023-04-21T05:20:56.360Z,7.11
2023-04-21T05:21:56.402Z,7.15
2023-04-21T05:22:56.418Z,7.15
2023-04-21T05:23:56.440Z,7.19
2023-04-21T05:24:56.466Z,7.19
2023-04-21T05:25:56.490Z,7.19
2023-04-21T05:26:56.519Z,7.22
2023-04-21T05:27:56.531Z,7.26
2023-04-21T05:28:56.601Z,7.19
2023-04-21T05:29:56.581Z,7.22
2023-04-21T05:30:56.609Z,7.23
2023-04-21T05:31:56.742Z,7.21
2023-04-21T05:32:56.704Z,7.37
2023-04-21T05:33:56.681Z,7.27
2023-04-21T05:34:56.727Z,7.33
2023-04-21T05:35:56.730Z,7.30
2023-04-21T05:36:56.758Z,7.34
2023-04-21T05:37:56.802Z,7.31
2023-04-21T05:38:56.812Z,7.29
2023-04-21T05:39:56.832Z,7.23
2023-04-21T05:40:56.857Z,7.39
2023-04-21T05:41:56.884Z,7.29
2023-04-21T05:42:56.922Z,7.30
2023-04-21T05:43:56.931Z,7.27
2023-04-21T05:44:56.954Z,7.27
2023-04-21T05:45:57.016Z,7.33
2023-04-21T05:46:57.007Z,7.27
2023-04-21T05:47:57.097Z,7.27
2023-04-21T05:48:57.058Z,7.30
2023-04-21T05:49:57.080Z,7.45
2023-04-21T05:50:57.104Z,7.45
2023-04-21T05:51:57.132Z,7.44
2023-04-21T05:52:57.152Z,7.47
2023-04-21T05:53:57.203Z,7.55
2023-04-21T05:54:57.203Z,7.54
2023-04-21T05:55:57.228Z,7.58
2023-04-21T05:56:57.256Z,7.71
2023-04-21T05:57:57.281Z,7.73
2023-04-21T05:58:57.307Z,7.75
2023-04-21T05:59:57.334Z,7.77
2023-04-21T06:00:57.368Z,7.77
2023-04-21T06:01:57.381Z,7.88
2023-04-21T06:02:57.590Z,7.82
2023-04-21T06:03:57.586Z,8.01
2023-04-21T06:04:57.594Z,7.98
2023-04-21T06:05:57.528Z,8.06
2023-04-21T06:06:57.539Z,8.21
2023-04-21T06:07:57.532Z,8.19
2023-04-21T06:08:57.560Z,8.17
2023-04-21T06:09:57.606Z,8.25
2023-04-21T06:10:57.605Z,8.19
2023-04-21T06:11:57.637Z,8.14
2023-04-21T06:12:57.665Z,8.14
2023-04-21T06:13:57.691Z,8.21
2023-04-21T06:14:57.838Z,8.14
2023-04-21T06:15:57.808Z,8.24
2023-04-21T06:16:57.761Z,8.28
2023-04-21T06:17:57.863Z,8.29
2023-04-21T06:18:57.807Z,8.29
2023-04-21T06:19:57.835Z,8.34
2023-04-21T06:20:57.858Z,8.40
2023-04-21T06:21:57.895Z,8.64
2023-04-21T06:22:57.912Z,8.80
2023-04-21T06:23:57.934Z,8.77
2023-04-21T06:24:58.778Z,8.94
2023-04-21T06:25:58.012Z,8.92
2023-04-21T06:26:58.014Z,9.04
2023-04-21T06:27:58.042Z,9.16
2023-04-21T06:28:58.074Z,9.19
2023-04-21T06:29:58.092Z,9.26
2023-04-21T06:30:58.119Z,9.24
2023-04-21T06:31:58.201Z,9.38
2023-04-21T06:32:58.223Z,9.41
2023-04-21T06:33:58.198Z,9.41
2023-04-21T06:34:58.231Z,9.55
2023-04-21T06:35:58.254Z,9.53
2023-04-21T06:36:58.277Z,9.63
2023-04-21T06:37:58.306Z,9.59
2023-04-21T06:38:58.328Z,9.75
2023-04-21T06:39:58.358Z,9.84
2023-04-21T06:40:58.380Z,9.84
2023-04-21T06:41:58.426Z,10.07
2023-04-21T06:42:58.515Z,10.10
2023-04-21T06:43:58.465Z,10.15
2023-04-21T06:44:58.551Z,10.15
2023-04-21T06:45:58.518Z,10.14
2023-04-21T06:46:58.616Z,10.20
2023-04-21T06:47:58.696Z,10.17
2023-04-21T06:48:58.681Z,10.26
2023-04-21T06:49:58.636Z,10.20
2023-04-21T06:50:58.653Z,10.15
2023-04-21T06:51:58.680Z,10.14
2023-04-21T06:52:58.705Z,10.33
2023-04-21T06:53:58.737Z,10.47
2023-04-21T06:54:58.760Z,10.79
2023-04-21T06:56:01.817Z,10.95
2023-04-21T06:56:58.814Z,11.15
2023-04-21T06:57:58.861Z,11.31
2023-04-21T06:58:58.872Z,11.42
2023-04-21T06:59:58.898Z,11.18
2023-04-21T07:00:58.989Z,11.02
2023-04-21T07:01:58.953Z,10.47
2023-04-21T07:02:59.053Z,10.54
2023-04-21T07:03:59.112Z,10.52
2023-04-21T07:04:59.039Z,10.42
2023-04-21T07:05:59.076Z,10.38
2023-04-21T07:07:01.670Z,10.28
2023-04-21T07:07:59.126Z,10.18
2023-04-21T07:08:59.154Z,10.17
2023-04-21T07:09:59.187Z,10.31
2023-04-21T07:10:59.207Z,10.26
2023-04-21T07:11:59.240Z,10.42
2023-04-21T07:12:59.266Z,10.57
2023-04-21T07:13:59.311Z,10.79
2023-04-21T07:14:59.328Z,10.65
2023-04-21T07:15:59.365Z,10.79
2023-04-21T07:16:59.479Z,10.91
2023-04-21T07:17:59.438Z,11.00
2023-04-21T07:18:59.436Z,11.08
2023-04-21T07:19:59.465Z,11.24
2023-04-21T07:20:59.493Z,11.46
2023-04-21T07:21:59.526Z,11.52
2023-04-21T07:22:59.557Z,11.41
2023-04-21T07:23:59.582Z,12.01
2023-04-21T07:24:59.610Z,12.41
2023-04-21T07:27:52.312Z,12.47
2023-04-21T07:28:52.329Z,12.38
2023-04-21T07:29:52.374Z,12.45
2023-04-21T07:30:52.422Z,12.44
2023-04-21T07:31:52.420Z,12.07
2023-04-21T07:32:52.495Z,12.03
2023-04-21T07:33:53.497Z,11.94
2023-04-21T07:34:52.499Z,11.75
2023-04-21T07:35:52.539Z,11.73
2023-04-21T07:36:52.570Z,11.73
2023-04-21T07:37:52.588Z,11.67
2023-04-21T07:38:52.624Z,11.61
2023-04-21T07:39:52.861Z,11.60
2023-04-21T07:40:52.682Z,11.61
2023-04-21T07:41:52.728Z,11.53
2023-04-21T07:42:52.727Z,11.59
2023-04-21T07:43:53.878Z,11.48
2023-04-21T07:44:52.787Z,11.43
2023-04-21T07:45:53.139Z,11.48
2023-04-21T07:46:52.842Z,11.48
2023-04-21T07:49:48.474Z,11.28
2023-04-21T07:50:48.223Z,11.48
2023-04-21T07:51:48.283Z,11.91
2023-04-21T07:52:48.690Z,12.76
2023-04-21T07:53:48.324Z,13.19
2023-04-21T07:54:48.352Z,12.99
2023-04-21T07:55:49.396Z,12.70
2023-04-21T07:56:48.414Z,12.63
2023-04-21T07:58:48.470Z,12.47
2023-04-21T08:00:48.929Z,12.47
2023-04-21T08:01:48.578Z,12.56
2023-04-21T08:02:48.755Z,12.47
2023-04-21T08:03:48.935Z,12.48
2023-04-21T08:04:48.728Z,12.48
2023-04-21T08:05:48.757Z,12.36
2023-04-21T08:06:48.815Z,12.31
2023-04-21T08:07:48.722Z,12.13
2023-04-21T08:08:48.768Z,12.26
2023-04-21T08:09:49.000Z,12.23
2023-04-21T08:10:48.803Z,12.20
2023-04-21T08:11:48.850Z,12.08
2023-04-21T08:12:48.872Z,12.15
2023-04-21T08:13:48.906Z,12.05
2023-04-21T08:14:49.137Z,12.19
2023-04-21T08:15:48.987Z,12.19
2023-04-21T08:16:49.057Z,12.20
2023-04-21T08:17:49.686Z,12.28
2023-04-21T08:18:49.065Z,12.26
2023-04-21T08:19:49.068Z,12.16
2023-04-21T08:20:49.525Z,12.20
2023-04-21T08:21:49.541Z,12.22
2023-04-21T08:22:49.211Z,12.20
2023-04-21T08:23:49.504Z,12.22
2023-04-21T08:24:49.221Z,12.10
2023-04-21T08:25:49.461Z,12.22
2023-04-21T08:26:49.504Z,12.29
2023-04-21T08:28:49.331Z,12.36
2023-04-21T08:29:49.357Z,12.52
2023-04-21T08:30:49.428Z,12.66
2023-04-21T08:31:49.438Z,12.84
2023-04-21T08:32:49.697Z,12.84
2023-04-21T08:34:00.445Z,12.74
2023-04-21T08:36:02.490Z,13.88
2023-04-21T08:36:49.607Z,14.83
2023-04-21T08:37:52.273Z,15.55
2023-04-21T08:39:49.646Z,16.25
2023-04-21T08:40:49.673Z,15.77
2023-04-21T08:41:49.706Z,15.43
2023-04-21T08:42:49.733Z,15.34
2023-04-21T08:43:49.770Z,15.23
2023-04-21T08:44:49.796Z,15.05
2023-04-21T08:45:51.059Z,15.08
2023-04-21T08:46:49.849Z,14.83
2023-04-21T08:47:49.905Z,14.67
2023-04-21T08:48:49.922Z,14.44
2023-04-21T08:49:49.995Z,14.31
2023-04-21T08:54:50.097Z,15.74
2023-04-21T08:55:59.582Z,16.66
2023-04-21T08:56:50.167Z,17.06
2023-04-21T08:57:50.188Z,17.00
2023-04-21T08:58:50.228Z,16.84
2023-04-21T08:59:50.252Z,17.02
2023-04-21T09:00:50.348Z,16.80
2023-04-21T09:01:50.364Z,16.36
2023-04-21T09:02:59.368Z,16.04
2023-04-21T09:03:50.498Z,16.49
2023-04-21T09:04:50.799Z,16.59
2023-04-21T09:05:50.672Z,16.84
2023-04-21T09:06:50.653Z,16.87
2023-04-21T09:07:50.500Z,16.76
2023-04-21T09:08:50.533Z,16.87
2023-04-21T09:09:50.569Z,17.10
2023-04-21T09:10:52.484Z,17.38
2023-04-21T09:11:50.648Z,17.46
2023-04-21T09:12:50.664Z,17.79
2023-04-21T09:13:50.695Z,17.98
2023-04-21T09:14:50.729Z,18.06
2023-04-21T09:15:50.764Z,17.63
2023-04-21T09:16:50.810Z,17.83
2023-04-21T09:17:51.658Z,18.19
2023-04-21T09:18:50.859Z,18.63
2023-04-21T09:19:50.901Z,18.08
2023-04-21T09:20:50.931Z,17.45
2023-04-21T09:21:50.983Z,17.35
2023-04-21T09:22:51.001Z,17.18
2023-04-21T09:23:51.043Z,17.27
2023-04-21T09:24:51.068Z,17.24
2023-04-21T09:25:51.092Z,17.15
2023-04-21T09:26:51.127Z,17.63
2023-04-21T09:27:51.169Z,17.92
2023-04-21T09:28:51.195Z,18.23
2023-04-21T09:29:51.226Z,17.95
2023-04-21T09:30:51.294Z,17.79
2023-04-21T09:31:51.294Z,17.06
2023-04-21T09:32:51.366Z,16.66
2023-04-21T09:33:57.770Z,16.80
2023-04-21T09:34:51.396Z,17.10
2023-04-21T09:35:51.430Z,17.38
2023-04-21T09:36:51.478Z,17.46
2023-04-21T09:37:51.520Z,17.71
2023-04-21T09:38:58.832Z,17.94
2023-04-21T09:40:03.663Z,17.94
2023-04-21T09:40:51.594Z,18.10
2023-04-21T09:41:51.624Z,18.16
2023-04-21T09:42:51.661Z,18.63
2023-04-21T09:43:51.697Z,19.30
2023-04-21T09:44:59.393Z,19.68
2023-04-21T09:45:51.776Z,19.15
2023-04-21T09:46:51.917Z,18.61
2023-04-21T09:47:51.921Z,18.14
2023-04-21T09:48:51.865Z,17.90
2023-04-21T09:49:51.893Z,17.69
2023-04-21T09:51:24.267Z,17.55
2023-04-21T09:52:51.992Z,17.27
2023-04-21T09:53:52.046Z,17.18
2023-04-21T09:54:52.085Z,17.77
2023-04-21T09:55:52.083Z,17.88
2023-04-21T09:56:52.119Z,17.95
2023-04-21T09:57:52.155Z,17.76
2023-04-21T09:58:52.187Z,17.52
2023-04-21T09:59:52.216Z,17.63
2023-04-21T10:00:52.249Z,17.49
2023-04-21T10:01:52.323Z,17.39
2023-04-21T10:02:52.463Z,17.98
2023-04-21T10:03:52.777Z,17.63
2023-04-21T10:04:52.672Z,17.15
2023-04-21T10:05:52.511Z,17.09
2023-04-21T10:06:52.440Z,16.94
2023-04-21T10:07:52.477Z,16.87
2023-04-21T10:08:52.504Z,16.70
2023-04-21T10:09:52.829Z,16.67
2023-04-21T10:10:52.570Z,16.70
2023-04-21T10:11:52.602Z,16.52
2023-04-21T10:12:52.633Z,16.25
2023-04-21T10:13:52.689Z,16.59
2023-04-21T10:14:52.697Z,16.69
2023-04-21T10:15:52.752Z,16.67
2023-04-21T10:16:52.761Z,16.57
2023-04-21T10:17:53.029Z,16.63
2023-04-21T10:18:53.033Z,16.65
2023-04-21T10:19:53.103Z,16.70
2023-04-21T10:20:53.089Z,16.91
2023-04-21T10:21:52.973Z,16.95
2023-04-21T10:22:53.100Z,16.88
2023-04-21T10:23:52.986Z,16.87
2023-04-21T10:24:53.012Z,16.87
2023-04-21T10:25:53.074Z,16.92
2023-04-21T10:26:55.118Z,17.17
2023-04-21T10:27:53.108Z,17.10
2023-04-21T10:28:53.146Z,17.13
2023-04-21T10:29:56.966Z,17.25
2023-04-21T10:30:53.203Z,17.86
2023-04-21T10:31:53.280Z,18.32
2023-04-21T10:32:53.302Z,18.74
2023-04-21T10:33:53.294Z,18.79
2023-04-21T10:34:53.329Z,18.87
2023-04-21T10:35:53.360Z,18.76
2023-04-21T10:36:53.395Z,18.31
2023-04-21T10:37:53.471Z,17.98
2023-04-21T10:38:53.461Z,18.35
2023-04-21T10:39:53.481Z,18.86
2023-04-21T10:40:53.526Z,19.09
2023-04-21T10:41:53.566Z,19.06
2023-04-21T10:42:53.581Z,19.32
2023-04-21T10:43:53.611Z,19.71
2023-04-21T10:44:53.650Z,19.45
2023-04-21T10:45:53.672Z,19.70
2023-04-21T10:46:53.832Z,19.98
2023-04-21T10:47:53.794Z,20.35
2023-04-21T10:48:53.787Z,20.68
2023-04-21T10:49:53.797Z,20.81
2023-04-21T10:50:53.836Z,20.81
2023-04-21T10:51:53.866Z,21.03
2023-04-21T10:52:53.901Z,21.27
2023-04-21T10:53:53.929Z,21.16
2023-04-21T10:54:53.964Z,21.16
2023-04-21T10:55:53.993Z,21.12
2023-04-21T10:56:54.053Z,21.15
2023-04-21T10:57:54.075Z,21.16
2023-04-21T10:58:54.093Z,21.28
2023-04-21T10:59:54.128Z,21.22
2023-04-21T11:00:54.171Z,21.34
2023-04-21T11:01:54.202Z,21.09
2023-04-21T11:02:54.349Z,21.15
2023-04-21T11:03:54.495Z,20.96
2023-04-21T11:04:54.623Z,20.54
2023-04-21T11:05:54.317Z,20.48
2023-04-21T11:06:54.351Z,20.27
2023-04-21T11:07:54.379Z,20.58
2023-04-21T11:08:54.424Z,20.34
2023-04-21T11:09:54.447Z,19.72
2023-04-21T11:10:54.506Z,19.02
2023-04-21T11:11:54.511Z,19.09
2023-04-21T11:12:54.545Z,18.91
2023-04-21T11:13:54.604Z,18.65
2023-04-21T11:14:54.610Z,18.74
2023-04-21T11:15:54.642Z,18.56
2023-04-21T11:16:54.726Z,18.34
2023-04-21T11:17:54.712Z,18.31
2023-04-21T11:18:54.737Z,18.57
2023-04-21T11:19:54.786Z,18.82
2023-04-21T11:20:54.798Z,18.94
2023-04-21T11:21:54.840Z,18.84
2023-04-21T11:22:54.884Z,18.74
2023-04-21T11:23:55.220Z,18.75
2023-04-21T11:24:54.931Z,18.90
2023-04-21T11:25:54.960Z,18.96
2023-04-21T11:26:55.001Z,19.06
2023-04-21T11:27:55.025Z,18.99
2023-04-21T11:28:55.255Z,19.40
2023-04-21T11:29:55.104Z,19.17
2023-04-21T11:30:55.219Z,18.97
2023-04-21T11:31:55.149Z,18.74
2023-04-21T11:32:55.205Z,18.71
2023-04-21T11:33:55.211Z,18.66
2023-04-21T11:34:55.256Z,18.65
2023-04-21T11:35:55.307Z,18.72
2023-04-21T11:36:55.314Z,18.81
2023-04-21T11:37:55.355Z,18.72
2023-04-21T11:38:55.381Z,18.93
2023-04-21T11:39:55.405Z,19.06
2023-04-21T11:40:55.465Z,19.10
2023-04-21T11:41:55.674Z,19.25
2023-04-21T11:42:55.505Z,19.47
2023-04-21T11:43:55.533Z,19.32
2023-04-21T11:44:55.578Z,19.35
2023-04-21T11:46:55.650Z,18.71
2023-04-21T11:47:55.712Z,18.71
2023-04-21T11:48:55.694Z,18.60
2023-04-21T11:49:55.737Z,18.65
2023-04-21T11:50:55.755Z,18.65
2023-04-21T11:51:56.120Z,18.82
2023-04-21T11:52:55.822Z,18.72
2023-04-21T11:53:55.874Z,18.61
2023-04-21T11:54:55.898Z,18.27
2023-04-21T11:55:56.048Z,18.21
2023-04-21T11:56:55.948Z,18.31
2023-04-21T11:57:55.983Z,18.31
2023-04-21T11:58:56.012Z,18.50
2023-04-21T11:59:56.049Z,18.49
2023-04-21T12:00:56.255Z,18.50
2023-04-21T12:01:56.162Z,18.49
2023-04-21T12:02:56.579Z,18.57
2023-04-21T12:03:56.416Z,18.59
2023-04-21T12:04:56.403Z,18.63
2023-04-21T12:05:56.449Z,18.34
2023-04-21T12:06:56.579Z,18.23
2023-04-21T12:07:56.415Z,18.05
2023-04-21T12:08:56.643Z,17.99
2023-04-21T12:09:56.557Z,17.94
2023-04-21T12:10:56.407Z,18.11
2023-04-21T12:12:00.259Z,18.24
2023-04-21T12:12:56.446Z,18.34
2023-04-21T12:13:56.476Z,18.60
2023-04-21T12:14:56.521Z,18.72
2023-04-21T12:16:56.569Z,18.66
2023-04-21T12:17:56.632Z,18.53
2023-04-21T12:18:56.657Z,18.51
2023-04-21T12:19:56.664Z,18.51
2023-04-21T12:20:56.706Z,18.74
2023-04-21T12:21:56.756Z,18.59
2023-04-21T12:22:56.768Z,18.49
2023-04-21T12:23:56.807Z,18.24
2023-04-21T12:24:56.816Z,18.23
2023-04-21T12:25:56.855Z,18.10
2023-04-21T12:26:56.879Z,18.13
2023-04-21T12:27:56.913Z,18.19
2023-04-21T12:28:56.951Z,18.26
2023-04-21T12:29:56.980Z,18.39
2023-04-21T12:30:57.004Z,18.51
2023-04-21T12:31:57.091Z,18.56
2023-04-21T12:32:57.206Z,18.36
2023-04-21T12:33:57.145Z,18.38
2023-04-21T12:34:57.148Z,18.23
2023-04-21T12:35:57.162Z,18.19
2023-04-21T12:36:57.189Z,18.13
2023-04-21T12:37:57.231Z,18.39
2023-04-21T12:38:57.250Z,18.59
2023-04-21T12:39:57.323Z,18.79
2023-04-21T12:40:57.323Z,18.90
2023-04-21T12:41:57.351Z,19.00
2023-04-21T12:42:57.377Z,19.07
2023-04-21T12:43:57.410Z,19.16
2023-04-21T12:44:57.436Z,19.24
2023-04-21T12:45:57.480Z,19.35
2023-04-21T12:46:57.501Z,19.31
2023-04-21T12:47:57.547Z,19.42
2023-04-21T12:48:57.582Z,19.43
2023-04-21T12:49:57.593Z,19.42
2023-04-21T12:50:57.643Z,19.35
2023-04-21T12:51:57.676Z,19.37
2023-04-21T12:52:57.689Z,19.40
2023-04-21T12:53:57.719Z,19.46
2023-04-21T12:54:57.749Z,19.32
2023-04-21T12:56:04.581Z,19.24
2023-04-21T12:56:57.811Z,19.17
2023-04-21T12:57:58.166Z,18.96
2023-04-21T12:58:57.870Z,19.12
2023-04-21T12:59:57.907Z,19.19
2023-04-21T13:00:57.964Z,19.15
2023-04-21T13:01:58.010Z,18.97
2023-04-21T13:02:58.127Z,19.02
2023-04-21T13:03:58.157Z,18.91
2023-04-21T13:04:58.060Z,18.90
2023-04-21T13:05:58.099Z,18.82
2023-04-21T13:06:58.156Z,18.84
2023-04-21T13:07:58.157Z,18.91
2023-04-21T13:08:58.185Z,18.71
2023-04-21T13:09:58.225Z,18.72
2023-04-21T13:10:58.250Z,18.75
2023-04-21T13:11:58.281Z,18.68
2023-04-21T13:12:58.306Z,18.71
2023-04-21T13:13:58.338Z,18.72
2023-04-21T13:14:58.372Z,18.61
2023-04-21T13:15:58.402Z,18.49
2023-04-21T13:16:58.451Z,18.32
2023-04-21T13:17:58.480Z,18.21
2023-04-21T13:18:58.492Z,18.13
2023-04-21T13:19:58.578Z,18.19
2023-04-21T13:20:58.556Z,18.20
2023-04-21T13:21:58.594Z,18.24